Time;durP1;ratioP1;P1;durP2;ratioP2;P2;SDS_P1;SDS_P2;PMS_P1;PMS_P2;Temp;Humidity;BMP_temperature;BMP_pressure;BME280_temperature;BME280_humidity;BME280_pressure;Samples;Min_cycle;Max_cycle;Signal;HPM_P1;HPM_P2
2024/02/12 00:00:25;;;;;;;7.50;6.10;;;;;;;6.88;91.58;96842.02;226903;1268;22481;-79
2024/02/12 00:05:29;;;;;;;7.30;6.40;;;;;;;6.77;91.73;96843.95;226912;1267;22576;-79
2024/02/12 00:10:39;;;;;;;6.50;5.90;;;;;;;6.67;91.56;96846.11;226633;1275;22738;-77
2024/02/12 00:15:42;;;;;;;7.30;5.90;;;;;;;6.60;91.96;96852.20;226651;1270;22542;-78
2024/02/12 00:20:44;;;;;;;6.50;5.80;;;;;;;6.52;91.92;96858.95;226501;1275;22551;-78
2024/02/12 00:25:47;;;;;;;6.90;6.20;;;;;;;6.45;92.59;96859.74;226725;1269;23002;-79
2024/02/12 00:30:49;;;;;;;6.30;5.70;;;;;;;6.41;92.18;96869.73;226647;1273;22547;-79
2024/02/12 00:35:52;;;;;;;6.10;5.50;;;;;;;6.39;92.17;96874.28;226740;1253;22589;-78
2024/02/12 00:40:54;;;;;;;6.10;5.50;;;;;;;6.40;91.91;96877.04;226580;1275;22535;-80
2024/02/12 00:45:58;;;;;;;5.80;5.30;;;;;;;6.41;92.45;96882.04;226706;1251;22545;-77
2024/02/12 00:51:01;;;;;;;8.10;5.70;;;;;;;6.39;92.22;96884.13;226692;1273;24316;-78
2024/02/12 00:56:05;;;;;;;6.10;5.60;;;;;;;6.38;92.36;96887.27;226646;1273;22547;-78
2024/02/12 01:01:10;;;;;;;6.50;5.80;;;;;;;6.37;92.29;96891.80;226690;1271;22574;-78
2024/02/12 01:06:13;;;;;;;6.60;6.00;;;;;;;6.34;92.67;96889.29;226669;1274;22557;-78
2024/02/12 01:11:16;;;;;;;6.40;5.40;;;;;;;6.32;92.24;96892.52;226745;1252;22546;-80
2024/02/12 01:16:21;;;;;;;6.60;6.00;;;;;;;6.29;92.76;96894.70;226716;1274;22580;-78
2024/02/12 01:21:23;;;;;;;6.00;5.40;;;;;;;6.25;92.29;96894.75;226855;1274;22565;-78
2024/02/12 01:26:27;;;;;;;6.20;5.60;;;;;;;6.21;92.54;96893.90;226727;1275;22537;-78
2024/02/12 01:31:29;;;;;;;7.20;6.00;;;;;;;6.18;92.39;96894.35;226605;1274;22551;-77
2024/02/12 01:36:32;;;;;;;6.30;5.70;;;;;;;6.15;92.50;96893.59;226519;1275;22627;-78
2024/02/12 01:41:36;;;;;;;6.00;5.40;;;;;;;6.11;92.63;96898.55;226556;1275;22658;-77
2024/02/12 01:46:40;;;;;;;6.90;5.60;;;;;;;6.10;92.49;96901.58;226731;1273;22563;-78
2024/02/12 01:51:44;;;;;;;5.80;5.20;;;;;;;6.11;92.59;96897.19;226705;1270;22553;-78
2024/02/12 01:56:47;;;;;;;6.10;5.60;;;;;;;6.13;93.10;96903.02;226491;1275;22557;-77
2024/02/12 02:01:52;;;;;;;6.30;5.60;;;;;;;6.12;92.46;96902.10;226682;1270;22575;-78
2024/02/12 02:06:55;;;;;;;6.20;5.60;;;;;;;6.09;92.23;96899.20;226703;1273;22751;-78
2024/02/12 02:11:57;;;;;;;7.10;5.90;;;;;;;6.05;92.35;96902.42;226706;1273;22547;-77
2024/02/12 02:17:00;;;;;;;6.40;5.80;;;;;;;6.00;92.47;96905.12;226532;1275;22530;-78
2024/02/12 02:22:02;;;;;;;6.10;5.50;;;;;;;5.97;92.82;96904.19;226593;1274;22661;-79
2024/02/12 02:27:06;;;;;;;6.60;5.80;;;;;;;5.96;92.46;96905.12;226642;1275;22540;-77
2024/02/12 02:32:09;;;;;;;6.00;5.40;;;;;;;5.99;92.93;96910.20;226683;1274;24474;-77
2024/02/12 02:37:11;;;;;;;6.40;5.80;;;;;;;6.01;92.41;96914.15;226688;1273;23622;-79
2024/02/12 02:42:13;;;;;;;8.00;6.40;;;;;;;6.02;92.62;96917.70;226522;1275;22544;-78
2024/02/12 02:47:17;;;;;;;6.90;6.00;;;;;;;6.03;92.39;96921.41;226652;1274;22547;-77
2024/02/12 02:52:19;;;;;;;6.70;6.00;;;;;;;6.04;92.46;96925.48;226684;1274;22549;-78
2024/02/12 02:57:21;;;;;;;6.40;5.10;;;;;;;6.06;92.67;96935.69;226854;1271;22549;-77
2024/02/12 03:02:24;;;;;;;6.70;5.50;;;;;;;6.09;92.36;96939.30;226883;1271;22544;-78
2024/02/12 03:07:26;;;;;;;8.30;6.30;;;;;;;6.13;92.21;96944.52;226704;1274;22539;-79
2024/02/12 03:12:30;;;;;;;6.10;5.50;;;;;;;6.16;92.25;96947.95;226605;1274;22720;-77
2024/02/12 03:17:33;;;;;;;6.20;5.30;;;;;;;6.18;92.32;96950.30;226523;1275;22546;-78
2024/02/12 03:22:37;;;;;;;6.50;5.90;;;;;;;6.20;92.56;96957.33;226496;1271;23417;-77
2024/02/12 03:27:43;;;;;;;6.10;5.40;;;;;;;6.22;92.12;96965.10;226715;1273;22547;-78
2024/02/12 03:32:46;;;;;;;5.40;4.80;;;;;;;6.24;92.41;96973.10;226481;1271;22590;-78
2024/02/12 03:37:48;;;;;;;5.50;5.00;;;;;;;6.25;91.93;96969.76;226613;1275;25250;-78
2024/02/12 03:42:50;;;;;;;6.10;5.40;;;;;;;6.27;92.21;96972.46;226499;1275;22539;-78
2024/02/12 03:47:59;;;;;;;5.40;4.90;;;;;;;6.30;92.23;96978.52;226562;1275;22553;-77
2024/02/12 04:03:49;;;;;;;6.30;5.60;;;;;;;6.36;91.97;97003.11;226480;1274;22543;-77
2024/02/12 04:08:51;;;;;;;5.40;4.90;;;;;;;6.38;91.89;97003.80;226707;1275;25300;-78
2024/02/12 04:13:54;;;;;;;6.10;5.50;;;;;;;6.40;91.77;97006.20;226529;1275;24039;-77
2024/02/12 04:18:57;;;;;;;6.50;5.10;;;;;;;6.40;91.89;97008.90;226586;1274;22543;-77
2024/02/12 04:24:04;;;;;;;7.50;6.30;;;;;;;6.41;91.68;97008.21;226724;1274;22539;-78
2024/02/12 04:29:07;;;;;;;6.70;5.50;;;;;;;6.42;91.66;97008.95;226737;1271;22546;-77
2024/02/12 04:34:10;;;;;;;7.10;5.60;;;;;;;6.44;91.57;97010.11;226549;1275;22546;-78
2024/02/12 04:39:16;;;;;;;6.40;5.60;;;;;;;6.45;91.42;97008.77;226647;1274;22552;-77
2024/02/12 04:44:20;;;;;;;7.40;5.80;;;;;;;6.43;91.78;97017.77;226527;1275;22558;-77
2024/02/12 04:49:23;;;;;;;7.10;6.40;;;;;;;6.41;91.21;97018.95;226449;1275;22547;-77
2024/02/12 04:54:26;;;;;;;7.40;5.70;;;;;;;6.40;91.37;97024.44;226590;1274;22561;-78
2024/02/12 04:59:28;;;;;;;7.10;6.40;;;;;;;6.40;91.62;97021.09;226532;1275;22539;-78
2024/02/12 05:04:32;;;;;;;8.50;6.10;;;;;;;6.41;91.57;97028.55;226538;1275;22524;-77
2024/02/12 05:09:35;;;;;;;8.10;6.80;;;;;;;6.41;91.58;97032.98;226826;1271;22543;-78
2024/02/12 05:14:37;;;;;;;8.00;6.70;;;;;;;6.43;91.44;97037.63;226543;1275;22546;-78
2024/02/12 05:25:04;;;;;;;10.90;7.60;;;;;;;6.42;91.53;97042.39;226720;1274;22543;-77
2024/02/12 05:30:07;;;;;;;9.50;7.50;;;;;;;6.41;91.32;97045.78;226718;1271;22551;-78
2024/02/12 05:35:09;;;;;;;9.40;7.50;;;;;;;6.42;91.40;97056.02;226672;1273;22554;-77
2024/02/12 05:40:12;;;;;;;9.70;7.20;;;;;;;6.42;91.19;97060.55;226541;1275;23421;-77
2024/02/12 05:45:14;;;;;;;10.30;7.90;;;;;;;6.42;91.34;97069.31;226509;1274;22543;-77
2024/02/12 05:50:18;;;;;;;9.60;7.30;;;;;;;6.43;91.68;97072.59;226658;1275;22546;-78
2024/02/12 05:55:20;;;;;;;9.30;7.00;;;;;;;6.45;91.61;97076.21;226677;1274;22526;-77
2024/02/12 06:00:22;;;;;;;8.90;7.50;;;;;;;6.44;91.33;97076.50;226784;1275;22578;-78
2024/02/12 06:05:24;;;;;;;9.20;7.60;;;;;;;6.46;91.47;97082.23;226709;1273;22543;-77
2024/02/12 06:10:26;;;;;;;9.40;7.60;;;;;;;6.48;91.04;97088.56;226692;1274;22654;-77
2024/02/12 06:15:31;;;;;;;11.30;8.30;;;;;;;6.51;91.51;97095.52;226709;1275;22557;-77
2024/02/12 06:20:33;;;;;;;11.10;8.20;;;;;;;6.53;90.76;97098.20;226629;1274;22904;-78
2024/02/12 06:25:35;;;;;;;12.90;9.60;;;;;;;6.56;91.23;97097.21;226456;1275;22547;-78
2024/02/12 06:30:37;;;;;;;11.50;8.50;;;;;;;6.59;91.18;97107.96;226446;1275;23035;-77
2024/02/12 06:35:39;;;;;;;14.30;9.50;;;;;;;6.60;91.05;97114.25;226694;1274;22626;-79
2024/02/12 06:40:43;;;;;;;12.40;8.50;;;;;;;6.62;91.10;97122.54;226420;1275;22558;-78
2024/02/12 06:45:46;;;;;;;11.90;9.10;;;;;;;6.64;91.11;97129.27;226752;1271;22644;-78
2024/02/12 06:50:48;;;;;;;14.80;10.20;;;;;;;6.65;90.85;97136.88;226599;1271;22947;-78
2024/02/12 06:55:50;;;;;;;12.10;8.50;;;;;;;6.69;90.99;97139.63;226477;1255;22641;-78
2024/02/12 07:00:54;;;;;;;39.20;29.60;;;;;;;6.75;91.18;97146.58;226331;1262;22565;-77
2024/02/12 07:05:58;;;;;;;10.10;7.90;;;;;;;6.82;90.92;97144.34;226535;1271;22546;-78
2024/02/12 07:11:00;;;;;;;10.80;7.50;;;;;;;6.90;91.32;97145.42;226391;1269;24500;-79
2024/02/12 07:16:02;;;;;;;10.30;8.00;;;;;;;6.97;90.95;97147.23;226382;1274;22585;-79
2024/02/12 07:21:04;;;;;;;8.60;6.90;;;;;;;7.04;90.27;97151.90;226250;1269;23073;-80
2024/02/12 07:26:07;;;;;;;8.30;6.80;;;;;;;7.10;90.51;97153.76;226188;1271;25413;-81
2024/02/12 07:31:10;;;;;;;8.60;7.00;;;;;;;7.16;90.60;97155.94;226374;1270;22548;-80
2024/02/12 07:36:12;;;;;;;7.20;6.40;;;;;;;7.25;90.13;97160.54;226191;1274;22547;-80
2024/02/12 07:41:15;;;;;;;9.50;7.80;;;;;;;7.34;90.22;97166.64;226364;1271;22547;-80
2024/02/12 07:46:17;;;;;;;11.40;8.50;;;;;;;7.44;89.97;97169.44;226545;1271;22587;-80
2024/02/12 07:51:20;;;;;;;8.30;6.90;;;;;;;7.52;89.95;97175.36;226544;1275;24231;-79
2024/02/12 07:56:26;;;;;;;11.90;8.20;;;;;;;7.59;89.85;97178.08;226544;1268;22619;-79
2024/02/12 08:01:29;;;;;;;8.00;6.50;;;;;;;7.67;89.55;97179.05;226115;1265;24250;-79
2024/02/12 08:06:31;;;;;;;8.30;6.50;;;;;;;7.78;89.36;97180.38;226040;1268;22575;-79
2024/02/12 08:11:33;;;;;;;8.70;6.40;;;;;;;7.91;89.09;97185.98;225834;1255;22743;-80
2024/02/12 08:16:35;;;;;;;7.60;6.30;;;;;;;8.02;89.09;97194.85;225878;1265;22643;-79
2024/02/12 08:21:38;;;;;;;9.60;6.50;;;;;;;8.13;88.91;97194.52;226391;1273;22551;-80
2024/02/12 08:26:41;;;;;;;9.40;6.60;;;;;;;8.23;88.47;97195.92;226176;1271;24285;-80
2024/02/12 08:31:43;;;;;;;10.00;7.90;;;;;;;8.30;88.43;97199.98;225933;1251;22582;-80
2024/02/12 08:36:45;;;;;;;7.20;6.50;;;;;;;8.38;88.32;97205.61;226242;1267;22589;-79
2024/02/12 08:41:49;;;;;;;8.30;6.30;;;;;;;8.45;87.68;97204.02;225804;1270;24270;-78
2024/02/12 08:46:51;;;;;;;8.10;6.10;;;;;;;8.53;87.95;97213.16;225583;1275;22539;-79
2024/02/12 08:51:54;;;;;;;7.90;5.90;;;;;;;8.62;87.91;97211.02;225661;1275;22555;-78
2024/02/12 08:56:55;;;;;;;8.40;6.40;;;;;;;8.75;87.55;97219.52;226092;1271;22559;-79
2024/02/12 09:01:58;;;;;;;8.50;6.50;;;;;;;8.81;87.23;97228.94;226362;1271;22565;-78
2024/02/12 09:07:03;;;;;;;8.30;5.90;;;;;;;8.87;86.89;97229.80;226601;1255;22549;-78
2024/02/12 09:12:06;;;;;;;7.90;5.90;;;;;;;8.95;86.85;97238.02;226567;1275;22545;-79
2024/02/12 09:17:08;;;;;;;10.80;6.50;;;;;;;9.03;87.02;97243.60;226603;1258;22593;-79
2024/02/12 09:22:11;;;;;;;8.20;5.50;;;;;;;9.16;86.64;97246.99;226244;1275;196462;-78
2024/02/12 09:27:13;;;;;;;9.50;5.90;;;;;;;9.31;86.61;97252.79;226346;1268;22544;-79
2024/02/12 09:32:16;;;;;;;8.40;5.40;;;;;;;9.45;86.26;97259.55;226423;1271;22544;-79
2024/02/12 09:37:19;;;;;;;7.60;5.20;;;;;;;9.48;85.55;97267.38;226356;1275;22539;-78
2024/02/12 09:42:22;;;;;;;8.20;5.10;;;;;;;9.61;85.96;97271.39;226458;1271;22539;-78
2024/02/12 09:47:26;;;;;;;9.80;5.10;;;;;;;9.84;85.81;97272.96;226423;1275;22667;-78
2024/02/12 09:52:29;;;;;;;7.90;4.80;;;;;;;9.98;85.23;97274.52;226350;1268;22546;-79
2024/02/12 09:57:31;;;;;;;7.20;5.00;;;;;;;10.13;84.76;97278.67;226191;1263;22608;-79
2024/02/12 10:02:36;;;;;;;10.20;5.00;;;;;;;10.25;84.48;97277.57;226438;1263;22955;-78
2024/02/12 10:07:39;;;;;;;9.10;5.30;;;;;;;10.41;84.23;97284.96;226502;1274;22547;-78
2024/02/12 10:12:42;;;;;;;5.70;4.80;;;;;;;10.56;83.98;97286.30;226352;1275;24309;-80
2024/02/12 10:17:46;;;;;;;7.30;4.40;;;;;;;10.69;83.71;97281.84;226327;1274;25974;-79
2024/02/12 10:22:49;;;;;;;6.10;4.50;;;;;;;10.86;83.65;97278.10;226011;1275;22558;-79
2024/02/12 10:27:51;;;;;;;9.90;5.20;;;;;;;10.96;82.73;97285.16;225984;1267;25253;-79
2024/02/12 10:32:57;;;;;;;5.70;4.00;;;;;;;10.97;82.12;97285.62;226325;1269;25346;-79
2024/02/12 10:37:59;;;;;;;4.30;3.40;;;;;;;11.09;81.83;97288.70;226178;1273;22637;-79
2024/02/12 10:43:05;;;;;;;4.80;3.50;;;;;;;11.18;81.79;97284.55;226118;1269;22706;-79
2024/02/12 10:48:08;;;;;;;8.20;4.00;;;;;;;11.37;81.54;97288.88;226330;1266;22549;-79
2024/02/12 10:53:12;;;;;;;7.20;3.30;;;;;;;11.58;81.52;97282.55;226024;1267;25432;-80
2024/02/12 10:58:14;;;;;;;7.60;3.60;;;;;;;11.79;81.15;97281.67;226304;1273;22589;-79
2024/02/12 11:03:17;;;;;;;7.50;3.50;;;;;;;11.92;80.68;97287.11;226223;1274;22602;-79
2024/02/12 11:08:23;;;;;;;5.10;3.10;;;;;;;11.98;80.26;97285.06;226215;1272;22700;-79
2024/02/12 11:13:34;;;;;;;5.10;3.20;;;;;;;12.06;79.93;97286.00;226252;1260;22561;-80
2024/02/12 11:18:38;;;;;;;3.70;3.10;;;;;;;12.08;79.78;97283.35;226818;1263;22571;-79
2024/02/12 11:23:41;;;;;;;5.00;3.70;;;;;;;12.06;79.39;97287.18;226300;1272;22552;-79
2024/02/12 11:28:57;;;;;;;4.70;3.20;;;;;;;12.05;79.48;97288.41;226335;1270;22553;-79
2024/02/12 11:34:00;;;;;;;1.80;1.50;;;;;;;12.03;79.48;97289.88;226202;1257;22604;-79
2024/02/12 11:39:03;;;;;;;1.40;1.30;;;;;;;12.04;78.68;97290.46;226374;1271;22564;-78
2024/02/12 11:44:06;;;;;;;3.00;1.70;;;;;;;11.99;77.73;97289.32;226162;1273;22563;-79
2024/02/12 11:49:08;;;;;;;1.60;1.50;;;;;;;11.94;77.73;97293.24;226334;1260;22585;-78
2024/02/12 11:54:13;;;;;;;2.30;2.10;;;;;;;12.02;78.06;97292.91;226410;1254;22556;-79
2024/02/12 11:59:21;;;;;;;3.10;1.70;;;;;;;12.14;77.98;97295.30;226196;1267;22543;-73
2024/02/12 12:04:25;;;;;;;1.80;1.60;;;;;;;12.23;77.10;97298.27;226376;1256;22552;-77
2024/02/12 12:09:29;;;;;;;2.00;1.40;;;;;;;12.34;76.95;97297.17;226350;1274;22547;-79
2024/02/12 12:14:40;;;;;;;2.50;1.90;;;;;;;12.34;75.93;97296.10;226468;1275;24276;-80
2024/02/12 12:19:42;;;;;;;2.00;1.80;;;;;;;12.27;75.52;97297.27;226617;1257;22602;-79
2024/02/12 12:24:45;;;;;;;2.10;1.90;;;;;;;12.24;75.35;97295.91;226484;1264;25878;-79
2024/02/12 12:29:47;;;;;;;1.20;1.00;;;;;;;12.17;75.36;97292.39;226107;1260;22655;-78
2024/02/12 12:34:51;;;;;;;1.70;1.40;;;;;;;12.08;74.52;97296.22;226082;1256;22551;-77
2024/02/12 12:39:53;;;;;;;1.10;1.00;;;;;;;12.02;73.76;97297.85;226329;1267;23122;-78
2024/02/12 12:44:57;;;;;;;6.60;1.60;;;;;;;11.99;73.09;97301.30;226245;1267;22566;-78
2024/02/12 12:50:01;;;;;;;1.90;1.40;;;;;;;11.97;72.81;97307.44;226259;1272;22565;-77
2024/02/12 12:55:13;;;;;;;3.00;1.30;;;;;;;11.91;73.04;97309.48;226229;1261;22820;-78
2024/02/12 13:00:21;;;;;;;1.40;1.20;;;;;;;11.87;72.88;97310.76;225942;1274;22566;-78
2024/02/12 13:05:25;;;;;;;1.90;1.40;;;;;;;11.78;72.81;97316.08;225833;1272;22579;-78
2024/02/12 13:10:27;;;;;;;1.60;1.10;;;;;;;11.68;72.21;97320.42;225977;1267;22558;-77
2024/02/12 13:15:45;;;;;;;2.50;1.10;;;;;;;11.55;71.68;97327.75;226389;1257;22623;-77
2024/02/12 13:20:50;;;;;;;1.60;0.90;;;;;;;11.46;71.29;97331.77;226617;1271;22547;-77
2024/02/12 13:25:54;;;;;;;1.10;0.90;;;;;;;11.35;71.35;97330.67;226497;1267;25267;-77
2024/02/12 13:30:56;;;;;;;1.30;0.90;;;;;;;11.28;71.10;97336.52;226118;1256;22557;-78
2024/02/12 13:36:01;;;;;;;1.90;1.10;;;;;;;11.17;70.78;97340.55;225560;1273;22779;-78
2024/02/12 13:41:05;;;;;;;1.10;1.00;;;;;;;11.12;70.86;97349.92;225780;1267;22562;-77
2024/02/12 13:46:09;;;;;;;1.40;1.30;;;;;;;11.08;71.33;97354.98;225684;1273;22587;-77
2024/02/12 13:51:12;;;;;;;1.30;1.20;;;;;;;11.10;71.67;97360.52;225728;1257;22582;-78
2024/02/12 13:56:14;;;;;;;2.10;1.90;;;;;;;11.19;72.08;97364.45;225707;1267;22555;-76
2024/02/12 14:01:17;;;;;;;1.40;1.20;;;;;;;11.27;72.09;97367.34;225655;1269;22548;-78
2024/02/12 14:06:39;;;;;;;1.60;1.00;;;;;;;11.36;71.77;97367.45;225525;1259;22598;-78
2024/02/12 14:11:41;;;;;;;1.60;1.40;;;;;;;11.37;70.44;97376.63;225494;1257;22550;-78
2024/02/12 14:16:43;;;;;;;1.70;1.60;;;;;;;11.38;70.59;97385.00;225638;1267;22572;-78
2024/02/12 14:21:47;;;;;;;2.20;1.70;;;;;;;11.38;70.60;97390.36;225484;1254;22610;-77
2024/02/12 14:26:49;;;;;;;1.30;1.20;;;;;;;11.31;70.79;97395.30;225543;1270;24953;-77
2024/02/12 14:32:01;;;;;;;1.90;1.30;;;;;;;11.25;70.40;97405.04;226340;1267;22584;-78
2024/02/12 14:37:23;;;;;;;1.70;1.20;;;;;;;11.19;70.36;97405.89;226506;1274;23490;-78
2024/02/12 14:42:26;;;;;;;1.80;1.40;;;;;;;11.15;69.64;97411.12;226538;1267;22593;-77
2024/02/12 14:47:29;;;;;;;1.90;1.50;;;;;;;11.11;70.16;97412.89;226253;1271;23019;-78
2024/02/12 14:52:32;;;;;;;1.60;1.40;;;;;;;11.05;70.10;97418.36;226442;1267;22671;-78
2024/02/12 14:57:34;;;;;;;3.50;2.00;;;;;;;10.90;70.10;97424.21;226643;1260;22559;-78
2024/02/12 15:02:36;;;;;;;3.10;1.70;;;;;;;10.75;70.59;97429.62;226231;1270;22551;-79
2024/02/12 15:07:38;;;;;;;2.10;1.50;;;;;;;10.57;70.49;97432.48;226314;1274;22546;-78
2024/02/12 15:12:40;;;;;;;1.40;1.30;;;;;;;10.38;70.78;97441.38;226430;1271;22555;-77
2024/02/12 15:17:45;;;;;;;3.40;2.00;;;;;;;10.19;71.05;97448.90;226393;1272;22660;-77
2024/02/12 15:22:49;;;;;;;3.10;2.30;;;;;;;10.06;71.81;97453.81;226447;1268;22578;-78
2024/02/12 15:27:52;;;;;;;2.20;1.80;;;;;;;9.95;72.07;97460.60;226295;1275;22582;-77
2024/02/12 15:32:57;;;;;;;2.50;1.70;;;;;;;9.85;72.23;97466.81;226846;1267;22543;-77
2024/02/12 15:38:08;;;;;;;3.10;2.60;;;;;;;9.75;72.50;97474.20;226485;1275;22558;-78
2024/02/12 15:43:12;;;;;;;4.40;3.00;;;;;;;9.65;72.44;97487.01;226693;1273;22561;-77
2024/02/12 15:48:15;;;;;;;3.40;2.50;;;;;;;9.59;72.48;97488.84;226630;1271;22534;-77
2024/02/12 15:53:58;;;;;;;5.30;3.10;;;;;;;9.53;73.01;97493.85;226642;1274;25337;-76
2024/02/12 15:59:03;;;;;;;4.00;3.60;;;;;;;9.45;73.25;97495.91;226825;1275;22547;-77
2024/02/12 16:04:05;;;;;;;5.60;4.30;;;;;;;9.39;73.26;97503.44;226641;1273;22573;-77
2024/02/12 16:09:09;;;;;;;4.50;3.40;;;;;;;9.34;73.65;97508.75;226625;1274;22524;-77
2024/02/12 16:14:11;;;;;;;6.10;4.60;;;;;;;9.30;73.60;97521.55;226661;1271;22546;-76
2024/02/12 16:19:13;;;;;;;8.50;6.70;;;;;;;9.24;73.55;97531.21;226660;1270;22545;-78
2024/02/12 16:24:15;;;;;;;11.40;8.60;;;;;;;9.18;73.88;97534.28;226682;1274;22564;-76
2024/02/12 16:29:19;;;;;;;11.40;7.90;;;;;;;9.13;74.19;97543.95;226606;1275;22566;-76
2024/02/12 16:34:22;;;;;;;13.00;7.60;;;;;;;9.08;74.18;97550.29;226607;1275;22554;-78
2024/02/12 16:39:24;;;;;;;10.80;7.90;;;;;;;9.04;74.44;97555.84;226651;1275;22558;-77
2024/02/12 16:44:25;;;;;;;7.10;5.20;;;;;;;8.99;74.63;97565.09;226668;1273;22551;-76
2024/02/12 16:49:27;;;;;;;7.20;4.20;;;;;;;8.93;74.78;97574.98;226422;1253;25653;-77
2024/02/12 16:54:29;;;;;;;7.50;4.10;;;;;;;8.87;75.14;97582.48;226720;1269;26018;-77
2024/02/12 16:59:31;;;;;;;10.60;8.00;;;;;;;8.81;75.17;97581.63;226578;1275;22542;-76
2024/02/12 17:04:33;;;;;;;10.00;7.50;;;;;;;8.74;75.03;97590.59;226674;1275;22554;-77
2024/02/12 17:09:35;;;;;;;9.30;7.50;;;;;;;8.68;75.48;97594.41;226692;1267;22543;-78
2024/02/12 17:14:38;;;;;;;12.60;8.10;;;;;;;8.65;75.36;97597.13;226768;1275;22548;-77
2024/02/12 17:19:40;;;;;;;12.90;9.10;;;;;;;8.61;75.56;97604.58;226668;1271;22559;-77
2024/02/12 17:24:43;;;;;;;13.90;9.70;;;;;;;8.56;75.60;97610.18;226505;1275;22542;-76
2024/02/12 17:29:48;;;;;;;12.30;9.20;;;;;;;8.51;75.51;97614.31;226876;1267;22586;-77
2024/02/12 17:34:50;;;;;;;15.00;9.30;;;;;;;8.48;75.75;97617.23;226711;1274;22556;-77
2024/02/12 17:39:53;;;;;;;15.90;10.60;;;;;;;8.46;75.93;97623.66;226923;1269;23015;-77
2024/02/12 17:44:55;;;;;;;23.40;14.40;;;;;;;8.43;75.98;97629.27;226736;1273;22619;-77
2024/02/12 17:49:57;;;;;;;18.30;12.90;;;;;;;8.40;76.08;97641.65;226685;1275;23425;-77
2024/02/12 17:54:59;;;;;;;15.00;10.50;;;;;;;8.37;76.13;97648.05;226625;1275;22475;-77
2024/02/12 18:00:01;;;;;;;11.00;7.50;;;;;;;8.35;76.41;97651.96;226529;1275;22550;-77
2024/02/12 18:05:09;;;;;;;11.50;8.20;;;;;;;8.33;76.55;97653.41;226686;1274;22554;-76
2024/02/12 18:10:13;;;;;;;13.20;7.80;;;;;;;8.31;76.42;97653.13;226707;1270;22742;-77
2024/02/12 18:15:16;;;;;;;14.30;8.40;;;;;;;8.30;76.79;97661.05;226588;1275;24269;-76
2024/02/12 18:20:18;;;;;;;14.00;8.00;;;;;;;8.27;77.06;97668.65;226681;1275;25300;-76
2024/02/12 18:25:21;;;;;;;14.50;8.70;;;;;;;8.24;76.70;97670.80;226657;1275;22545;-77
2024/02/12 18:30:22;;;;;;;15.70;9.40;;;;;;;8.20;76.83;97681.14;226655;1273;22591;-76
2024/02/12 18:35:25;;;;;;;16.50;10.50;;;;;;;8.16;77.24;97687.27;226524;1275;22630;-76
2024/02/12 18:40:27;;;;;;;18.80;11.10;;;;;;;8.12;77.54;97689.31;226897;1271;25493;-77
2024/02/12 18:45:30;;;;;;;16.70;11.80;;;;;;;8.09;77.47;97701.05;226722;1275;22563;-76
2024/02/12 18:50:33;;;;;;;18.50;12.90;;;;;;;8.07;77.49;97704.27;226643;1273;22539;-77
2024/02/12 18:55:35;;;;;;;20.20;13.00;;;;;;;8.06;77.78;97707.29;226720;1273;22614;-77
2024/02/12 19:00:38;;;;;;;22.10;15.00;;;;;;;8.02;77.55;97714.33;226717;1260;24900;-77
2024/02/12 19:05:40;;;;;;;22.20;14.80;;;;;;;7.96;77.77;97721.08;226625;1274;23085;-77
2024/02/12 19:10:45;;;;;;;22.30;14.60;;;;;;;7.90;78.02;97726.91;226708;1274;22542;-76
2024/02/12 19:15:48;;;;;;;20.50;14.60;;;;;;;7.82;77.77;97731.82;226715;1274;22596;-76
2024/02/12 19:20:50;;;;;;;22.40;15.00;;;;;;;7.70;78.37;97749.32;226690;1271;22693;-78
2024/02/12 19:25:53;;;;;;;23.70;15.10;;;;;;;7.56;78.04;97753.77;226689;1272;22557;-77
2024/02/12 19:30:58;;;;;;;26.80;18.00;;;;;;;7.40;78.20;97770.09;226704;1273;22569;-77
2024/02/12 19:36:01;;;;;;;25.00;17.20;;;;;;;7.27;78.59;97779.39;226745;1274;23355;-76
2024/02/12 19:41:04;;;;;;;26.20;16.90;;;;;;;7.20;78.81;97788.23;226660;1275;24226;-76
2024/02/12 19:46:06;;;;;;;26.10;16.10;;;;;;;7.15;79.02;97793.07;226365;1275;22597;-76
2024/02/12 19:51:10;;;;;;;19.70;12.40;;;;;;;7.07;78.85;97800.20;226683;1274;22543;-76
2024/02/12 19:56:15;;;;;;;18.60;12.30;;;;;;;6.97;78.83;97807.16;226557;1275;22553;-76
2024/02/12 20:01:19;;;;;;;19.70;13.40;;;;;;;6.90;79.01;97811.41;226613;1271;22639;-77
2024/02/12 20:06:21;;;;;;;18.30;12.00;;;;;;;6.87;79.37;97819.10;226691;1275;22561;-77
2024/02/12 20:11:23;;;;;;;18.10;12.10;;;;;;;6.87;79.45;97829.23;226737;1259;22551;-77
2024/02/12 20:16:25;;;;;;;17.40;12.10;;;;;;;6.85;79.30;97826.88;226677;1274;22561;-77
2024/02/12 20:21:28;;;;;;;16.90;12.00;;;;;;;6.88;79.70;97835.43;226544;1274;22551;-76
2024/02/12 20:26:31;;;;;;;18.90;12.60;;;;;;;6.93;79.69;97842.75;226864;1268;22557;-76
2024/02/12 20:31:35;;;;;;;20.80;14.20;;;;;;;6.98;79.72;97850.48;226681;1274;22558;-76
2024/02/12 20:36:38;;;;;;;19.80;13.70;;;;;;;7.03;80.19;97855.12;226718;1274;25343;-77
2024/02/12 20:41:40;;;;;;;20.40;14.30;;;;;;;7.07;80.01;97859.61;226613;1274;22561;-78
2024/02/12 20:46:43;;;;;;;23.30;16.10;;;;;;;7.13;79.80;97865.15;226821;1272;22558;-77
2024/02/12 20:51:49;;;;;;;29.70;18.10;;;;;;;7.17;80.00;97870.03;226718;1275;22521;-77
2024/02/12 20:56:51;;;;;;;33.80;19.80;;;;;;;7.20;80.09;97872.98;226904;1273;22552;-76
2024/02/12 21:01:53;;;;;;;33.10;19.70;;;;;;;7.21;79.95;97877.42;226876;1272;22707;-77
2024/02/12 21:06:55;;;;;;;31.50;20.10;;;;;;;7.22;80.05;97889.45;226600;1275;23694;-75
2024/02/12 21:11:58;;;;;;;26.40;18.20;;;;;;;7.24;80.15;97894.92;226658;1274;22555;-77
2024/02/12 21:17:02;;;;;;;21.50;15.70;;;;;;;7.23;80.38;97900.98;226682;1274;26573;-77
2024/02/12 21:22:05;;;;;;;25.30;15.80;;;;;;;7.22;80.35;97900.77;226378;1274;438706;-77
2024/02/12 21:27:13;;;;;;;25.00;15.20;;;;;;;7.20;80.38;97906.77;226633;1275;22590;-78
2024/02/12 21:32:18;;;;;;;22.30;14.50;;;;;;;7.18;80.37;97915.72;226868;1275;22591;-77
2024/02/12 21:37:20;;;;;;;18.50;12.00;;;;;;;7.17;80.30;97927.45;226895;1255;22543;-76
2024/02/12 21:42:23;;;;;;;16.80;11.20;;;;;;;7.15;80.30;97926.99;226452;1273;22547;-77
2024/02/12 21:47:27;;;;;;;17.60;11.90;;;;;;;7.13;80.43;97933.36;226700;1273;22570;-78
2024/02/12 21:52:30;;;;;;;19.10;11.60;;;;;;;7.12;80.52;97944.80;226763;1271;22554;-77
2024/02/12 21:57:33;;;;;;;17.90;11.80;;;;;;;7.08;80.63;97952.48;226606;1275;22587;-77
2024/02/12 22:02:37;;;;;;;17.80;11.50;;;;;;;7.07;80.39;97959.66;226663;1271;23073;-77
2024/02/12 22:07:44;;;;;;;18.00;11.80;;;;;;;7.05;80.65;97964.73;226801;1275;22671;-77
2024/02/12 22:12:46;;;;;;;17.60;12.00;;;;;;;7.03;80.31;97971.40;226758;1273;22569;-76
2024/02/12 22:17:49;;;;;;;16.00;10.90;;;;;;;6.99;80.73;97979.52;226713;1274;22530;-77
2024/02/12 22:22:52;;;;;;;19.20;11.50;;;;;;;6.95;80.94;97986.48;226704;1270;22605;-77
2024/02/12 22:27:54;;;;;;;19.10;11.10;;;;;;;6.92;80.72;97992.52;226794;1271;22538;-77
2024/02/12 22:32:57;;;;;;;16.00;10.80;;;;;;;6.89;80.95;97996.85;226618;1275;22701;-77
2024/02/12 22:38:00;;;;;;;16.20;9.50;;;;;;;6.88;80.99;98006.78;226694;1271;22554;-76
2024/02/12 22:43:02;;;;;;;17.90;9.80;;;;;;;6.86;80.79;98021.36;226526;1274;22558;-77
2024/02/12 22:48:04;;;;;;;19.20;10.00;;;;;;;6.79;80.70;98028.73;226820;1271;22576;-76
2024/02/12 22:53:10;;;;;;;14.20;9.40;;;;;;;6.70;81.24;98039.02;226835;1272;23620;-76
2024/02/12 22:58:12;;;;;;;14.70;9.40;;;;;;;6.62;80.89;98042.95;226506;1274;22550;-76
2024/02/12 23:03:14;;;;;;;14.50;9.40;;;;;;;6.55;81.37;98048.13;226714;1273;22540;-77
2024/02/12 23:08:17;;;;;;;14.20;9.90;;;;;;;6.49;81.20;98052.41;226833;1271;22572;-78
2024/02/12 23:13:19;;;;;;;15.60;10.20;;;;;;;6.41;81.54;98057.54;226542;1275;22545;-78
2024/02/12 23:18:21;;;;;;;17.10;10.90;;;;;;;6.33;81.25;98064.09;226649;1271;24382;-77
2024/02/12 23:23:26;;;;;;;21.00;12.70;;;;;;;6.24;81.72;98064.72;226646;1273;22749;-76
2024/02/12 23:28:29;;;;;;;20.90;12.40;;;;;;;6.13;81.80;98073.37;226786;1271;22565;-76
2024/02/12 23:33:33;;;;;;;21.80;14.20;;;;;;;6.00;81.90;98079.41;226639;1273;24278;-77
2024/02/12 23:38:35;;;;;;;19.80;12.10;;;;;;;5.84;81.89;98082.83;226599;1272;24957;-77
2024/02/12 23:43:37;;;;;;;19.50;13.10;;;;;;;5.68;81.90;98085.02;226542;1272;24565;-77
2024/02/12 23:48:39;;;;;;;21.20;13.20;;;;;;;5.52;82.12;98088.00;226863;1272;22570;-77